createdAt,value
2019-01-19T00:00:07.318Z,100936.20
2019-01-19T00:02:53.171Z,100928.61
2019-01-19T00:06:05.827Z,100934.34
2019-01-19T00:08:52.193Z,100935.13
2019-01-19T00:12:28.950Z,100937.34
2019-01-19T00:15:26.859Z,100930.52
2019-01-19T00:18:51.000Z,100928.25
2019-01-19T00:22:22.011Z,100929.23
2019-01-19T00:25:32.216Z,100923.59
2019-01-19T00:28:18.781Z,100927.47
2019-01-19T00:31:10.483Z,100920.58
2019-01-19T00:35:03.005Z,100926.58
2019-01-19T00:38:33.423Z,100915.15
2019-01-19T00:41:43.283Z,100921.46
2019-01-19T00:44:36.451Z,100917.83
2019-01-19T00:48:01.218Z,100921.94
2019-01-19T00:51:37.894Z,100920.84
2019-01-19T00:54:40.101Z,100919.88
2019-01-19T00:57:49.550Z,100912.06
2019-01-19T01:01:20.396Z,100916.61
2019-01-19T01:04:11.965Z,100918.70
2019-01-19T01:07:17.984Z,100922.33
2019-01-19T01:10:19.878Z,100924.39
2019-01-19T01:13:53.872Z,100927.82
2019-01-19T01:16:43.580Z,100923.09
2019-01-19T01:19:53.054Z,100925.39
2019-01-19T01:22:56.686Z,100929.70
2019-01-19T01:26:22.036Z,100922.66
2019-01-19T01:30:07.218Z,100921.16
2019-01-19T01:33:34.805Z,100923.91
2019-01-19T01:37:00.042Z,100919.63
2019-01-19T01:40:27.456Z,100923.27
2019-01-19T01:44:03.052Z,100919.23
2019-01-19T01:47:28.236Z,100915.42
2019-01-19T01:50:43.346Z,100925.98
2019-01-19T01:54:24.261Z,100921.03
2019-01-19T01:56:54.796Z,100915.27
2019-01-19T01:59:41.152Z,100905.02
2019-01-19T02:02:41.277Z,100906.45
2019-01-19T02:05:40.375Z,100904.58
2019-01-19T02:08:58.445Z,100907.96
2019-01-19T02:12:05.136Z,100907.22
2019-01-19T02:15:18.531Z,100901.32
2019-01-19T02:18:28.529Z,100894.73
2019-01-19T02:22:17.208Z,100894.53
2019-01-19T02:25:22.296Z,100899.27
2019-01-19T02:28:22.235Z,100896.73
2019-01-19T02:31:45.980Z,100902.48
2019-01-19T02:35:02.801Z,100907.91
2019-01-19T02:38:10.987Z,100903.62
2019-01-19T02:41:00.173Z,100902.44
2019-01-19T02:44:22.753Z,100900.02
2019-01-19T02:47:22.115Z,100903.52
2019-01-19T02:50:42.669Z,100898.47
2019-01-19T02:54:01.113Z,100901.27
2019-01-19T02:57:18.242Z,100900.88
2019-01-19T03:00:11.401Z,100902.06
2019-01-19T03:03:15.516Z,100891.56
2019-01-19T03:06:14.600Z,100890.77
2019-01-19T03:09:12.672Z,100892.14
2019-01-19T03:12:53.240Z,100889.27
2019-01-19T03:16:16.208Z,100883.26
2019-01-19T03:19:09.816Z,100885.42
2019-01-19T03:22:30.213Z,100881.33
2019-01-19T03:25:36.479Z,100880.97
2019-01-19T03:28:42.184Z,100894.20
2019-01-19T03:31:53.875Z,100893.94
2019-01-19T03:35:23.139Z,100888.06
2019-01-19T03:38:48.364Z,100884.16
2019-01-19T03:42:17.526Z,100876.20
2019-01-19T03:45:42.057Z,100881.59
2019-01-19T03:49:04.851Z,100883.87
2019-01-19T03:52:10.249Z,100878.48
2019-01-19T03:54:53.633Z,100879.52
2019-01-19T03:58:09.113Z,100878.78
2019-01-19T04:01:02.558Z,100877.27
2019-01-19T04:04:10.741Z,100874.36
2019-01-19T04:07:24.947Z,100877.61
2019-01-19T04:10:30.030Z,100870.33
2019-01-19T04:13:39.005Z,100869.08
2019-01-19T04:17:12.429Z,100870.24
2019-01-19T04:20:37.359Z,100873.16
2019-01-19T04:23:06.263Z,100874.05
2019-01-19T04:26:04.106Z,100875.25
2019-01-19T04:28:32.159Z,100868.44
2019-01-19T04:30:59.975Z,100869.97
2019-01-19T04:33:27.739Z,100867.83
2019-01-19T04:35:55.859Z,100866.86
2019-01-19T04:38:23.842Z,100868.05
2019-01-19T04:40:51.785Z,100870.46
2019-01-19T04:43:19.548Z,100869.47
2019-01-19T04:45:48.641Z,100870.20
2019-01-19T04:48:18.359Z,100875.97
2019-01-19T04:50:46.140Z,100867.70
2019-01-19T04:53:13.902Z,100866.25
2019-01-19T04:55:41.677Z,100867.83
2019-01-19T04:58:09.496Z,100867.96
2019-01-19T05:00:37.249Z,100865.47
2019-01-19T05:03:05.142Z,100863.03
2019-01-19T05:05:32.900Z,100864.61
2019-01-19T05:08:00.677Z,100865.92
2019-01-19T05:10:28.439Z,100870.29
2019-01-19T05:12:56.166Z,100864.41
2019-01-19T05:15:23.990Z,100861.70
2019-01-19T05:17:52.015Z,100861.66
2019-01-19T05:20:19.803Z,100867.84
2019-01-19T05:22:47.544Z,100861.92
2019-01-19T05:25:15.300Z,100872.00
2019-01-19T05:27:43.016Z,100865.03
2019-01-19T05:30:14.990Z,100867.66
2019-01-19T05:32:42.936Z,100865.16
2019-01-19T05:35:10.888Z,100871.62
2019-01-19T05:37:38.621Z,100870.48
2019-01-19T05:40:08.336Z,100865.08
2019-01-19T05:42:36.079Z,100873.67
2019-01-19T05:45:04.888Z,100870.62
2019-01-19T05:47:32.649Z,100876.37
2019-01-19T05:50:00.462Z,100870.62
2019-01-19T05:52:28.270Z,100878.70
2019-01-19T05:54:56.025Z,100881.34
2019-01-19T05:57:23.772Z,100877.47
2019-01-19T05:59:51.513Z,100884.67
2019-01-19T06:02:21.159Z,100881.68
2019-01-19T06:04:48.871Z,100880.23
2019-01-19T06:07:16.604Z,100875.05
2019-01-19T06:09:44.396Z,100879.98
2019-01-19T06:12:12.183Z,100876.75
2019-01-19T06:14:39.945Z,100876.75
2019-01-19T06:17:07.706Z,100880.48
2019-01-19T06:19:35.741Z,100878.00
2019-01-19T06:22:04.348Z,100875.68
2019-01-19T06:24:32.104Z,100876.06
2019-01-19T06:26:59.879Z,100877.72
2019-01-19T06:29:27.631Z,100873.77
2019-01-19T06:31:55.404Z,100879.30
2019-01-19T06:34:23.146Z,100871.13
2019-01-19T06:36:59.602Z,100876.78
2019-01-19T06:39:27.323Z,100873.80
2019-01-19T06:41:55.105Z,100875.70
2019-01-19T06:44:22.862Z,100872.09
2019-01-19T06:46:50.916Z,100873.29
2019-01-19T06:49:18.694Z,100876.78
2019-01-19T06:51:46.432Z,100879.80
2019-01-19T06:54:15.315Z,100877.75
2019-01-19T06:56:43.079Z,100875.34
2019-01-19T06:59:17.360Z,100878.22
2019-01-19T07:01:40.456Z,100886.98
2019-01-19T07:04:08.224Z,100889.88
2019-01-19T07:06:35.967Z,100892.48
2019-01-19T07:09:06.994Z,100883.97
2019-01-19T07:11:35.063Z,100887.70
2019-01-19T07:14:02.895Z,100892.01
2019-01-19T07:16:30.764Z,100890.23
2019-01-19T07:18:58.526Z,100890.22
2019-01-19T07:21:26.324Z,100894.06
2019-01-19T07:23:54.072Z,100894.53
2019-01-19T07:26:21.805Z,100892.48
2019-01-19T07:28:49.609Z,100898.61
2019-01-19T07:31:17.338Z,100895.59
2019-01-19T07:33:45.094Z,100898.73
2019-01-19T07:36:12.827Z,100901.60
2019-01-19T07:38:40.608Z,100900.78
2019-01-19T07:41:08.350Z,100894.37
2019-01-19T07:43:36.486Z,100898.84
2019-01-19T07:46:11.821Z,100898.80
2019-01-19T07:48:40.020Z,100900.84
2019-01-19T07:51:07.730Z,100901.41
2019-01-19T07:53:38.685Z,100904.98
2019-01-19T07:56:06.419Z,100897.63
2019-01-19T07:58:34.175Z,100901.13
2019-01-19T08:01:01.947Z,100900.66
2019-01-19T08:03:29.835Z,100899.73
2019-01-19T08:05:57.596Z,100904.77
2019-01-19T08:08:26.900Z,100904.27
2019-01-19T08:10:54.816Z,100913.00
2019-01-19T08:13:22.922Z,100915.25
2019-01-19T08:15:50.704Z,100899.25
2019-01-19T08:18:18.455Z,100899.81
2019-01-19T08:20:49.773Z,100908.83
2019-01-19T08:23:17.618Z,100905.61
2019-01-19T08:25:53.671Z,100908.23
2019-01-19T08:28:36.311Z,100910.26
2019-01-19T08:31:06.913Z,100904.59
2019-01-19T08:33:35.170Z,100906.52
2019-01-19T08:36:10.883Z,100903.11
2019-01-19T08:38:42.791Z,100901.92
2019-01-19T08:41:16.364Z,100902.77
2019-01-19T08:43:51.701Z,100897.78
2019-01-19T08:46:19.749Z,100897.09
2019-01-19T08:49:01.938Z,100898.77
2019-01-19T08:51:38.756Z,100890.20
2019-01-19T08:54:09.982Z,100900.88
2019-01-19T08:56:40.108Z,100886.30
2019-01-19T08:59:07.959Z,100890.77
2019-01-19T09:01:48.750Z,100890.77
2019-01-19T09:04:19.992Z,100893.65
2019-01-19T09:06:48.218Z,100898.90
2019-01-19T09:09:18.080Z,100889.37
2019-01-19T09:11:45.933Z,100878.31
2019-01-19T09:14:13.652Z,100870.45
2019-01-19T09:16:41.790Z,100862.20
2019-01-19T09:19:09.573Z,100863.24
2019-01-19T09:21:37.334Z,100874.31
2019-01-19T09:24:30.496Z,100872.78
2019-01-19T09:27:06.517Z,100882.95
2019-01-19T09:29:34.220Z,100880.20
2019-01-19T09:32:02.106Z,100883.50
2019-01-19T09:34:34.113Z,100881.55
2019-01-19T09:37:01.941Z,100879.60
2019-01-19T09:39:29.716Z,100875.14
2019-01-19T09:41:57.536Z,100877.79
2019-01-19T09:44:25.544Z,100868.54
2019-01-19T09:46:53.392Z,100854.27
2019-01-19T09:49:30.552Z,100848.35
2019-01-19T09:52:03.926Z,100853.16
2019-01-19T09:54:33.107Z,100855.55
2019-01-19T09:57:01.046Z,100862.97
2019-01-19T09:59:35.231Z,100867.70
2019-01-19T10:02:03.318Z,100877.57
2019-01-19T10:04:31.544Z,100872.95
2019-01-19T10:07:01.540Z,100869.23
2019-01-19T10:09:31.548Z,100876.66
2019-01-19T10:12:16.818Z,100872.02
2019-01-19T10:14:44.573Z,100874.70
2019-01-19T10:17:12.781Z,100861.17
2019-01-19T10:19:40.545Z,100863.66
2019-01-19T10:22:08.303Z,100859.17
2019-01-19T10:25:03.273Z,100866.16
2019-01-19T10:27:37.268Z,100861.98
2019-01-19T10:30:14.837Z,100858.48
2019-01-19T10:32:46.699Z,100852.93
2019-01-19T10:35:41.156Z,100853.67
2019-01-19T10:38:09.367Z,100847.37
2019-01-19T10:40:39.935Z,100849.42
2019-01-19T10:43:07.751Z,100847.37
2019-01-19T10:45:35.543Z,100846.92
2019-01-19T10:48:40.444Z,100841.66
2019-01-19T10:51:08.327Z,100827.86
2019-01-19T10:53:36.085Z,100818.05
2019-01-19T10:56:04.071Z,100812.39
2019-01-19T10:58:53.039Z,100799.98
2019-01-19T11:01:43.175Z,100800.77
2019-01-19T11:04:08.525Z,100793.94
2019-01-19T11:06:36.335Z,100798.69
2019-01-19T11:09:06.234Z,100793.08
2019-01-19T11:12:03.512Z,100798.00
2019-01-19T11:14:36.088Z,100793.08
2019-01-19T11:17:19.256Z,100788.85
2019-01-19T11:19:48.705Z,100789.52
2019-01-19T11:22:22.541Z,100776.94
2019-01-19T11:25:12.698Z,100769.49
2019-01-19T11:27:49.612Z,100777.90
2019-01-19T11:30:28.702Z,100770.17
2019-01-19T11:33:19.534Z,100761.30
2019-01-19T11:35:37.257Z,100755.94
2019-01-19T11:38:20.494Z,100756.35
2019-01-19T11:40:48.347Z,100752.70
2019-01-19T11:43:16.141Z,100757.34
2019-01-19T11:45:56.834Z,100754.44
2019-01-19T11:48:29.603Z,100747.19
2019-01-19T11:50:59.327Z,100739.41
2019-01-19T11:53:27.165Z,100736.22
2019-01-19T11:55:54.989Z,100731.12
2019-01-19T11:58:22.775Z,100731.01
2019-01-19T12:00:50.518Z,100731.19
2019-01-19T12:03:19.038Z,100739.32
2019-01-19T12:05:46.977Z,100733.16
2019-01-19T12:08:19.701Z,100726.33
2019-01-19T12:10:45.236Z,100728.92
2019-01-19T12:13:12.992Z,100737.77
2019-01-19T12:15:40.756Z,100735.59
2019-01-19T12:18:08.517Z,100742.37
2019-01-19T12:20:39.766Z,100741.95
2019-01-19T12:23:08.044Z,100740.33
2019-01-19T12:25:35.909Z,100744.68
2019-01-19T12:28:03.752Z,100741.25
2019-01-19T12:30:31.686Z,100747.41
2019-01-19T12:33:31.220Z,100741.17
2019-01-19T12:40:31.739Z,100746.91
2019-01-19T12:43:36.164Z,100734.80
2019-01-19T12:46:02.233Z,100736.83
2019-01-19T12:49:03.020Z,100732.37
2019-01-19T12:52:50.474Z,100727.96
2019-01-19T12:55:18.543Z,100717.75
2019-01-19T12:57:59.378Z,100717.77
2019-01-19T13:00:36.088Z,100711.80
2019-01-19T13:03:26.257Z,100711.62
2019-01-19T13:06:49.125Z,100708.28
2019-01-19T13:10:18.939Z,100713.05
2019-01-19T13:13:28.268Z,100701.16
2019-01-19T13:16:58.930Z,100705.53
2019-01-19T13:20:20.563Z,100703.28
2019-01-19T13:24:00.727Z,100695.41
2019-01-19T13:27:28.647Z,100692.04
2019-01-19T13:30:31.376Z,100691.89
2019-01-19T13:33:18.503Z,100689.13
2019-01-19T13:36:29.988Z,100685.27
2019-01-19T13:39:40.326Z,100686.28
2019-01-19T13:43:29.312Z,100676.70
2019-01-19T13:46:46.740Z,100677.23
2019-01-19T13:50:18.232Z,100668.71
2019-01-19T13:53:38.841Z,100674.70
2019-01-19T13:57:00.553Z,100668.36
2019-01-19T14:00:05.112Z,100660.70
2019-01-19T14:03:47.492Z,100669.72
2019-01-19T14:07:28.782Z,100664.90
2019-01-19T14:10:53.323Z,100650.39
2019-01-19T14:14:06.772Z,100657.74
2019-01-19T14:17:48.766Z,100651.89
2019-01-19T14:20:53.532Z,100655.58
2019-01-19T14:23:43.193Z,100646.41
2019-01-19T14:27:19.634Z,100645.06
2019-01-19T14:30:43.812Z,100644.56
2019-01-19T14:34:07.953Z,100640.72
2019-01-19T14:37:26.715Z,100632.42
2019-01-19T14:40:24.684Z,100636.05
2019-01-19T14:43:48.005Z,100637.21
2019-01-19T14:46:49.869Z,100639.05
2019-01-19T14:50:25.491Z,100628.89
2019-01-19T14:53:46.119Z,100625.73
2019-01-19T14:57:20.216Z,100622.58
2019-01-19T15:00:38.195Z,100624.23
2019-01-19T15:04:09.863Z,100622.55
2019-01-19T15:07:48.059Z,100621.72
2019-01-19T15:11:13.023Z,100619.04
2019-01-19T15:15:01.973Z,100619.54
2019-01-19T15:18:10.500Z,100611.20
2019-01-19T15:21:06.607Z,100617.47
2019-01-19T15:24:05.017Z,100614.92
2019-01-19T15:27:21.064Z,100611.03
2019-01-19T15:30:49.766Z,100617.20
2019-01-19T15:34:18.839Z,100610.81
2019-01-19T15:37:34.649Z,100615.81
2019-01-19T15:40:47.187Z,100618.02
2019-01-19T15:44:16.604Z,100613.28
2019-01-19T15:47:29.802Z,100612.05
2019-01-19T15:50:30.687Z,100611.42
2019-01-19T15:53:30.997Z,100608.88
2019-01-19T15:56:56.846Z,100606.91
2019-01-19T16:00:25.909Z,100618.69
2019-01-19T16:03:55.717Z,100614.55
2019-01-19T16:07:25.958Z,100613.05
2019-01-19T16:10:39.708Z,100611.52
2019-01-19T16:14:07.422Z,100614.61
2019-01-19T16:17:43.268Z,100607.22
2019-01-19T16:21:11.675Z,100604.39
2019-01-19T16:24:32.891Z,100609.09
2019-01-19T16:27:34.343Z,100608.78
2019-01-19T16:30:53.784Z,100607.61
2019-01-19T16:34:27.219Z,100608.95
2019-01-19T16:37:39.812Z,100600.83
2019-01-19T16:40:52.605Z,100604.42
2019-01-19T16:44:04.631Z,100607.66
2019-01-19T16:47:22.675Z,100602.75
2019-01-19T16:50:55.563Z,100597.75
2019-01-19T16:53:30.651Z,100600.09
2019-01-19T16:57:05.891Z,100602.75
2019-01-19T17:00:26.229Z,100602.80
2019-01-19T17:04:04.149Z,100606.11
2019-01-19T17:07:26.243Z,100598.94
2019-01-19T17:11:04.233Z,100596.67
2019-01-19T17:14:36.695Z,100588.76
2019-01-19T17:18:19.217Z,100598.98
2019-01-19T17:22:19.050Z,100589.77
2019-01-19T17:25:55.795Z,100585.34
2019-01-19T17:33:40.270Z,100593.11
2019-01-19T17:37:31.966Z,100597.33
2019-01-19T17:41:14.014Z,100598.59
2019-01-19T17:44:43.986Z,100595.55
2019-01-19T17:52:27.300Z,100592.30
2019-01-19T17:56:19.844Z,100591.55
2019-01-19T17:59:57.860Z,100589.58
2019-01-19T18:04:07.971Z,100586.32
2019-01-19T18:07:49.672Z,100582.26
2019-01-19T18:11:01.474Z,100583.09
2019-01-19T18:14:32.594Z,100585.42
2019-01-19T18:18:08.926Z,100586.05
2019-01-19T18:21:23.349Z,100593.22
2019-01-19T18:25:10.323Z,100593.84
2019-01-19T18:28:31.086Z,100590.94
2019-01-19T18:32:30.188Z,100588.55
2019-01-19T18:36:08.383Z,100588.55
2019-01-19T18:39:14.524Z,100587.70
2019-01-19T18:42:14.022Z,100581.23
2019-01-19T18:45:36.820Z,100586.14
2019-01-19T18:49:16.981Z,100579.75
2019-01-19T18:52:37.544Z,100578.97
2019-01-19T18:55:57.547Z,100575.41
2019-01-19T18:58:51.069Z,100576.45
2019-01-19T19:02:25.088Z,100580.92
2019-01-19T19:05:54.563Z,100573.80
2019-01-19T19:09:26.838Z,100573.31
2019-01-19T19:12:44.457Z,100577.79
2019-01-19T19:16:52.587Z,100582.81
2019-01-19T19:19:43.427Z,100572.91
2019-01-19T19:23:09.725Z,100577.94
2019-01-19T19:26:15.684Z,100583.11
2019-01-19T19:29:09.584Z,100580.25
2019-01-19T19:32:51.244Z,100579.42
2019-01-19T19:36:23.346Z,100579.18
2019-01-19T19:39:58.486Z,100577.40
2019-01-19T19:43:07.366Z,100572.50
2019-01-19T19:46:34.165Z,100576.84
2019-01-19T19:53:04.233Z,100577.45
2019-01-19T19:55:42.644Z,100571.46
2019-01-19T20:05:54.135Z,100562.97
2019-01-19T20:09:23.074Z,100567.47
2019-01-19T20:11:47.056Z,100558.27
2019-01-19T20:14:52.904Z,100566.05
2019-01-19T20:18:20.793Z,100556.94
2019-01-19T20:21:38.568Z,100558.30
2019-01-19T20:25:17.302Z,100559.05
2019-01-19T20:28:12.912Z,100567.59
2019-01-19T20:31:46.213Z,100566.52
2019-01-19T20:34:59.137Z,100564.72
2019-01-19T20:37:50.047Z,100557.12
2019-01-19T20:41:02.559Z,100565.33
2019-01-19T20:43:39.553Z,100562.06
2019-01-19T20:46:07.354Z,100564.57
2019-01-19T20:48:35.747Z,100568.11
2019-01-19T20:51:29.139Z,100562.09
2019-01-19T20:53:56.986Z,100567.42
2019-01-19T20:56:24.779Z,100568.48
2019-01-19T20:58:54.002Z,100576.34
2019-01-19T21:01:22.899Z,100570.97
2019-01-19T21:03:58.497Z,100568.28
2019-01-19T21:06:26.296Z,100559.23
2019-01-19T21:08:54.095Z,100560.52
2019-01-19T21:11:21.922Z,100566.09
2019-01-19T21:13:49.694Z,100567.62
2019-01-19T21:16:17.502Z,100567.42
2019-01-19T21:18:45.291Z,100561.56
2019-01-19T21:21:13.083Z,100565.37
2019-01-19T21:23:40.874Z,100564.55
2019-01-19T21:26:08.683Z,100559.67
2019-01-19T21:28:36.446Z,100564.26
2019-01-19T21:31:04.349Z,100561.17
2019-01-19T21:33:32.162Z,100552.37
2019-01-19T21:36:00.011Z,100554.41
2019-01-19T21:38:27.855Z,100547.91
2019-01-19T21:40:55.715Z,100553.28
2019-01-19T21:43:23.558Z,100550.10
2019-01-19T21:45:51.382Z,100555.25
2019-01-19T21:48:19.216Z,100546.62
2019-01-19T21:50:47.080Z,100548.55
2019-01-19T21:53:14.886Z,100546.05
2019-01-19T21:55:42.718Z,100557.02
2019-01-19T21:58:10.540Z,100548.52
2019-01-19T22:00:38.530Z,100544.80
2019-01-19T22:03:06.374Z,100559.11
2019-01-19T22:05:34.212Z,100559.31
2019-01-19T22:08:02.098Z,100556.34
2019-01-19T22:10:30.130Z,100554.38
2019-01-19T22:12:58.035Z,100553.22
2019-01-19T22:15:26.130Z,100548.31
2019-01-19T22:17:53.979Z,100553.16
2019-01-19T22:20:21.806Z,100552.07
2019-01-19T22:22:49.609Z,100549.27
2019-01-19T22:25:17.452Z,100544.59
2019-01-19T22:27:47.245Z,100543.67
2019-01-19T22:30:20.716Z,100551.63
2019-01-19T22:32:50.310Z,100541.98
2019-01-19T22:35:18.275Z,100542.59
2019-01-19T22:37:46.196Z,100546.55
2019-01-19T22:40:15.795Z,100546.25
2019-01-19T22:42:43.700Z,100548.86
2019-01-19T22:45:13.831Z,100544.77
2019-01-19T22:47:41.620Z,100547.57
2019-01-19T22:50:12.264Z,100544.36
2019-01-19T22:52:40.868Z,100545.37
2019-01-19T22:55:09.059Z,100546.52
2019-01-19T22:57:36.851Z,100539.66
2019-01-19T23:00:28.288Z,100544.36
2019-01-19T23:02:56.087Z,100546.19
2019-01-19T23:05:23.831Z,100542.69
2019-01-19T23:07:51.617Z,100539.17
2019-01-19T23:10:19.374Z,100541.38
2019-01-19T23:12:47.440Z,100542.65
2019-01-19T23:15:15.626Z,100540.39
2019-01-19T23:17:43.408Z,100543.13
2019-01-19T23:20:11.677Z,100543.19
2019-01-19T23:22:39.559Z,100536.57
2019-01-19T23:25:08.308Z,100530.30
2019-01-19T23:27:36.068Z,100533.96
2019-01-19T23:30:06.476Z,100532.39
2019-01-19T23:32:34.205Z,100538.32
2019-01-19T23:35:02.018Z,100537.43
2019-01-19T23:37:29.786Z,100533.13
2019-01-19T23:39:57.649Z,100533.94
2019-01-19T23:42:25.399Z,100534.58
2019-01-19T23:44:53.174Z,100536.40
2019-01-19T23:47:20.906Z,100526.95
2019-01-19T23:49:48.708Z,100538.11
2019-01-19T23:52:16.465Z,100534.61
2019-01-19T23:54:45.899Z,100527.48
2019-01-19T23:57:13.634Z,100527.43
2019-01-19T23:59:41.382Z,100526.53
